sensor_id;sensor_type;location;lat;lon;timestamp;pressure;altitude;pressure_sealevel;temperature;humidity
75996;BME280;64681;49.738;9.004;2023-03-30T00:01:19;98993.97;;;12.51;62.39
75996;BME280;64681;49.738;9.004;2023-03-30T00:03:45;98985.78;;;12.63;62.00
75996;BME280;64681;49.738;9.004;2023-03-30T00:06:13;98986.50;;;12.60;62.64
75996;BME280;64681;49.738;9.004;2023-03-30T00:08:45;98993.59;;;12.72;62.25
75996;BME280;64681;49.738;9.004;2023-03-30T00:11:13;98993.81;;;12.83;61.02
75996;BME280;64681;49.738;9.004;2023-03-30T00:13:40;98986.66;;;13.10;59.63
75996;BME280;64681;49.738;9.004;2023-03-30T00:16:09;98995.03;;;13.28;58.83
75996;BME280;64681;49.738;9.004;2023-03-30T00:18:35;98998.97;;;13.35;58.76
75996;BME280;64681;49.738;9.004;2023-03-30T00:21:02;98998.72;;;13.20;59.56
75996;BME280;64681;49.738;9.004;2023-03-30T00:23:28;99006.88;;;12.85;62.02
75996;BME280;64681;49.738;9.004;2023-03-30T00:25:55;98993.06;;;12.63;62.03
75996;BME280;64681;49.738;9.004;2023-03-30T00:28:21;98987.19;;;12.77;62.79
75996;BME280;64681;49.738;9.004;2023-03-30T00:30:48;98982.75;;;12.85;62.25
75996;BME280;64681;49.738;9.004;2023-03-30T00:33:14;98983.38;;;12.97;61.00
75996;BME280;64681;49.738;9.004;2023-03-30T00:35:40;98972.75;;;12.62;62.70
75996;BME280;64681;49.738;9.004;2023-03-30T00:38:06;98965.91;;;12.64;62.42
75996;BME280;64681;49.738;9.004;2023-03-30T00:40:33;98972.75;;;12.62;62.44
75996;BME280;64681;49.738;9.004;2023-03-30T00:43:05;98973.03;;;12.76;61.99
75996;BME280;64681;49.738;9.004;2023-03-30T00:45:35;98962.59;;;12.71;62.33
75996;BME280;64681;49.738;9.004;2023-03-30T00:48:18;98970.44;;;12.60;62.43
75996;BME280;64681;49.738;9.004;2023-03-30T00:50:59;98975.56;;;12.69;62.35
75996;BME280;64681;49.738;9.004;2023-03-30T00:55:57;98963.53;;;12.59;63.30
75996;BME280;64681;49.738;9.004;2023-03-30T00:58:25;98960.47;;;12.61;63.85
75996;BME280;64681;49.738;9.004;2023-03-30T01:00:52;98961.16;;;12.58;64.17
75996;BME280;64681;49.738;9.004;2023-03-30T01:03:26;98952.09;;;12.43;64.97
75996;BME280;64681;49.738;9.004;2023-03-30T01:05:54;98946.59;;;12.55;64.72
75996;BME280;64681;49.738;9.004;2023-03-30T01:08:21;98944.91;;;12.66;64.63
75996;BME280;64681;49.738;9.004;2023-03-30T01:10:49;98942.72;;;12.53;64.80
75996;BME280;64681;49.738;9.004;2023-03-30T01:13:16;98940.38;;;12.31;65.09
75996;BME280;64681;49.738;9.004;2023-03-30T01:18:36;98937.38;;;12.33;65.49
75996;BME280;64681;49.738;9.004;2023-03-30T01:34:50;98942.28;;;11.95;65.70
75996;BME280;64681;49.738;9.004;2023-03-30T01:46:00;98938.56;;;11.84;66.36
75996;BME280;64681;49.738;9.004;2023-03-30T01:48:42;98944.38;;;11.86;65.54
75996;BME280;64681;49.738;9.004;2023-03-30T01:51:19;98932.47;;;11.83;66.36
75996;BME280;64681;49.738;9.004;2023-03-30T01:53:46;98925.56;;;11.82;66.58
75996;BME280;64681;49.738;9.004;2023-03-30T01:56:29;98925.38;;;11.91;66.80
75996;BME280;64681;49.738;9.004;2023-03-30T02:01:40;98938.59;;;12.00;66.17
75996;BME280;64681;49.738;9.004;2023-03-30T02:04:10;98943.47;;;12.14;66.23
75996;BME280;64681;49.738;9.004;2023-03-30T02:06:43;98947.81;;;12.02;65.63
75996;BME280;64681;49.738;9.004;2023-03-30T02:09:18;98938.75;;;12.27;65.43
75996;BME280;64681;49.738;9.004;2023-03-30T02:11:49;98933.25;;;12.19;66.06
75996;BME280;64681;49.738;9.004;2023-03-30T02:14:24;98940.06;;;11.97;66.64
75996;BME280;64681;49.738;9.004;2023-03-30T02:16:59;98959.63;;;12.37;65.54
75996;BME280;64681;49.738;9.004;2023-03-30T02:19:27;98939.75;;;12.38;65.95
75996;BME280;64681;49.738;9.004;2023-03-30T02:21:54;98948.47;;;12.74;65.65
75996;BME280;64681;49.738;9.004;2023-03-30T02:24:24;98948.41;;;12.71;66.41
75996;BME280;64681;49.738;9.004;2023-03-30T02:26:52;98959.06;;;12.67;66.77
75996;BME280;64681;49.738;9.004;2023-03-30T02:29:20;98950.38;;;12.54;66.79
75996;BME280;64681;49.738;9.004;2023-03-30T02:31:50;98955.88;;;12.61;67.64
75996;BME280;64681;49.738;9.004;2023-03-30T02:51:23;98958.16;;;12.04;73.26
75996;BME280;64681;49.738;9.004;2023-03-30T02:53:56;98928.56;;;12.32;72.42
75996;BME280;64681;49.738;9.004;2023-03-30T02:59:09;98921.06;;;12.02;74.54
75996;BME280;64681;49.738;9.004;2023-03-30T03:01:49;98920.31;;;12.22;73.37
75996;BME280;64681;49.738;9.004;2023-03-30T03:04:17;98923.63;;;12.34;73.58
75996;BME280;64681;49.738;9.004;2023-03-30T03:06:45;98936.06;;;12.66;72.15
75996;BME280;64681;49.738;9.004;2023-03-30T03:09:10;98920.22;;;11.98;74.53
75996;BME280;64681;49.738;9.004;2023-03-30T03:11:36;98922.00;;;12.10;74.24
75996;BME280;64681;49.738;9.004;2023-03-30T03:14:01;98933.75;;;12.25;74.58
75996;BME280;64681;49.738;9.004;2023-03-30T03:16:27;98941.94;;;12.32;74.41
75996;BME280;64681;49.738;9.004;2023-03-30T03:18:52;98933.09;;;12.12;75.09
75996;BME280;64681;49.738;9.004;2023-03-30T03:21:18;98949.31;;;12.19;75.11
75996;BME280;64681;49.738;9.004;2023-03-30T03:23:44;98938.53;;;12.16;75.72
75996;BME280;64681;49.738;9.004;2023-03-30T03:26:12;98945.28;;;12.10;76.90
75996;BME280;64681;49.738;9.004;2023-03-30T03:28:38;98939.19;;;12.09;77.27
75996;BME280;64681;49.738;9.004;2023-03-30T03:31:04;98961.53;;;12.37;77.06
75996;BME280;64681;49.738;9.004;2023-03-30T03:33:30;98964.22;;;12.37;77.44
75996;BME280;64681;49.738;9.004;2023-03-30T03:35:56;98960.03;;;12.19;78.12
75996;BME280;64681;49.738;9.004;2023-03-30T03:38:26;98983.09;;;12.44;76.86
75996;BME280;64681;49.738;9.004;2023-03-30T03:40:57;98977.16;;;12.34;77.15
75996;BME280;64681;49.738;9.004;2023-03-30T03:43:23;98959.72;;;11.89;80.45
75996;BME280;64681;49.738;9.004;2023-03-30T03:45:50;98916.78;;;11.66;81.23
75996;BME280;64681;49.738;9.004;2023-03-30T03:48:18;98934.38;;;12.18;79.16
75996;BME280;64681;49.738;9.004;2023-03-30T03:50:44;98935.72;;;12.09;79.52
75996;BME280;64681;49.738;9.004;2023-03-30T03:53:13;98929.81;;;12.19;78.30
75996;BME280;64681;49.738;9.004;2023-03-30T03:55:38;98924.00;;;11.97;79.25
75996;BME280;64681;49.738;9.004;2023-03-30T03:58:06;98922.31;;;12.09;78.44
75996;BME280;64681;49.738;9.004;2023-03-30T04:00:33;98916.22;;;11.92;78.40
75996;BME280;64681;49.738;9.004;2023-03-30T04:02:59;98912.00;;;11.91;79.42
75996;BME280;64681;49.738;9.004;2023-03-30T04:05:24;98892.09;;;11.72;80.97
75996;BME280;64681;49.738;9.004;2023-03-30T04:07:51;98874.22;;;11.77;81.09
75996;BME280;64681;49.738;9.004;2023-03-30T04:10:19;98878.75;;;11.92;79.72
75996;BME280;64681;49.738;9.004;2023-03-30T04:12:45;98861.88;;;11.88;79.08
75996;BME280;64681;49.738;9.004;2023-03-30T04:15:11;98864.97;;;11.90;79.41
75996;BME280;64681;49.738;9.004;2023-03-30T04:17:36;98871.88;;;11.91;79.12
75996;BME280;64681;49.738;9.004;2023-03-30T04:20:03;98865.94;;;11.82;80.20
75996;BME280;64681;49.738;9.004;2023-03-30T04:22:31;98869.38;;;11.82;80.50
75996;BME280;64681;49.738;9.004;2023-03-30T04:25:07;98857.94;;;11.82;80.63
75996;BME280;64681;49.738;9.004;2023-03-30T04:27:34;98868.69;;;11.85;80.33
75996;BME280;64681;49.738;9.004;2023-03-30T04:30:05;98845.94;;;11.76;81.46
75996;BME280;64681;49.738;9.004;2023-03-30T04:32:31;98855.34;;;11.69;82.06
75996;BME280;64681;49.738;9.004;2023-03-30T04:35:06;98845.25;;;11.79;81.64
75996;BME280;64681;49.738;9.004;2023-03-30T04:37:32;98840.63;;;12.15;79.74
75996;BME280;64681;49.738;9.004;2023-03-30T04:40:00;98837.13;;;12.11;79.91
75996;BME280;64681;49.738;9.004;2023-03-30T04:42:27;98842.94;;;11.97;81.19
75996;BME280;64681;49.738;9.004;2023-03-30T04:45:02;98829.59;;;12.16;79.88
75996;BME280;64681;49.738;9.004;2023-03-30T04:47:29;98830.47;;;12.24;79.38
75996;BME280;64681;49.738;9.004;2023-03-30T04:49:55;98816.47;;;12.31;79.08
75996;BME280;64681;49.738;9.004;2023-03-30T04:52:21;98821.09;;;12.34;79.12
75996;BME280;64681;49.738;9.004;2023-03-30T04:54:47;98818.78;;;12.32;79.36
75996;BME280;64681;49.738;9.004;2023-03-30T04:57:13;98830.28;;;12.33;79.65
75996;BME280;64681;49.738;9.004;2023-03-30T04:59:43;98835.34;;;12.38;78.96
75996;BME280;64681;49.738;9.004;2023-03-30T05:02:10;98825.63;;;12.30;79.60
75996;BME280;64681;49.738;9.004;2023-03-30T05:04:37;98835.09;;;12.47;79.20
75996;BME280;64681;49.738;9.004;2023-03-30T05:07:03;98840.19;;;12.52;78.72
75996;BME280;64681;49.738;9.004;2023-03-30T05:09:29;98842.44;;;12.50;78.99
75996;BME280;64681;49.738;9.004;2023-03-30T05:11:55;98847.50;;;12.55;78.86
75996;BME280;64681;49.738;9.004;2023-03-30T05:14:21;98834.28;;;12.66;78.18
75996;BME280;64681;49.738;9.004;2023-03-30T05:16:46;98847.34;;;12.68;78.49
75996;BME280;64681;49.738;9.004;2023-03-30T05:19:12;98865.13;;;12.56;78.87
75996;BME280;64681;49.738;9.004;2023-03-30T05:21:37;98852.72;;;12.48;78.82
75996;BME280;64681;49.738;9.004;2023-03-30T05:24:03;98863.47;;;12.28;80.02
75996;BME280;64681;49.738;9.004;2023-03-30T05:26:29;98858.31;;;12.39;79.20
75996;BME280;64681;49.738;9.004;2023-03-30T05:28:55;98865.16;;;12.79;77.90
75996;BME280;64681;49.738;9.004;2023-03-30T05:31:21;98865.84;;;12.99;76.33
75996;BME280;64681;49.738;9.004;2023-03-30T05:33:47;98881.00;;;12.88;77.07
75996;BME280;64681;49.738;9.004;2023-03-30T05:36:12;98875.16;;;13.06;76.49
75996;BME280;64681;49.738;9.004;2023-03-30T05:38:38;98882.19;;;13.14;76.01
75996;BME280;64681;49.738;9.004;2023-03-30T05:41:04;98888.91;;;13.04;76.73
75996;BME280;64681;49.738;9.004;2023-03-30T05:43:31;98899.69;;;12.85;77.31
75996;BME280;64681;49.738;9.004;2023-03-30T05:45:57;98907.81;;;12.69;78.01
75996;BME280;64681;49.738;9.004;2023-03-30T05:48:23;98916.56;;;12.65;78.26
75996;BME280;64681;49.738;9.004;2023-03-30T05:50:49;98927.25;;;12.85;77.65
75996;BME280;64681;49.738;9.004;2023-03-30T05:53:15;98921.47;;;12.83;77.62
75996;BME280;64681;49.738;9.004;2023-03-30T05:55:46;98906.34;;;12.71;78.15
75996;BME280;64681;49.738;9.004;2023-03-30T05:58:13;98908.22;;;12.71;78.09
75996;BME280;64681;49.738;9.004;2023-03-30T06:00:38;98922.69;;;12.86;77.60
75996;BME280;64681;49.738;9.004;2023-03-30T06:03:09;98915.75;;;12.85;77.67
75996;BME280;64681;49.738;9.004;2023-03-30T06:05:37;98935.84;;;12.94;77.48
75996;BME280;64681;49.738;9.004;2023-03-30T06:08:10;98963.50;;;12.98;77.27
75996;BME280;64681;49.738;9.004;2023-03-30T06:10:36;99003.69;;;12.98;77.54
75996;BME280;64681;49.738;9.004;2023-03-30T06:13:02;98999.53;;;12.81;78.70
75996;BME280;64681;49.738;9.004;2023-03-30T06:15:28;99008.91;;;12.52;80.75
75996;BME280;64681;49.738;9.004;2023-03-30T06:17:54;99015.88;;;12.57;80.86
75996;BME280;64681;49.738;9.004;2023-03-30T06:20:21;99023.13;;;12.76;79.89
75996;BME280;64681;49.738;9.004;2023-03-30T06:22:48;99013.56;;;12.94;79.44
75996;BME280;64681;49.738;9.004;2023-03-30T06:25:14;99014.81;;;12.61;81.01
75996;BME280;64681;49.738;9.004;2023-03-30T06:27:40;99005.22;;;12.05;84.42
75996;BME280;64681;49.738;9.004;2023-03-30T06:30:06;99011.81;;;12.27;83.54
75996;BME280;64681;49.738;9.004;2023-03-30T06:32:34;99014.53;;;12.11;84.58
75996;BME280;64681;49.738;9.004;2023-03-30T06:35:01;99003.63;;;12.20;84.59
75996;BME280;64681;49.738;9.004;2023-03-30T06:37:29;98990.09;;;12.13;84.89
75996;BME280;64681;49.738;9.004;2023-03-30T06:39:55;98982.38;;;12.27;84.00
75996;BME280;64681;49.738;9.004;2023-03-30T06:42:21;98981.03;;;12.01;85.47
75996;BME280;64681;49.738;9.004;2023-03-30T06:44:47;98988.91;;;12.10;85.23
75996;BME280;64681;49.738;9.004;2023-03-30T06:47:13;99000.16;;;12.19;84.55
75996;BME280;64681;49.738;9.004;2023-03-30T06:49:38;98990.25;;;12.20;84.29
75996;BME280;64681;49.738;9.004;2023-03-30T06:52:04;98995.84;;;12.31;83.58
75996;BME280;64681;49.738;9.004;2023-03-30T06:54:30;98999.34;;;12.35;83.97
75996;BME280;64681;49.738;9.004;2023-03-30T06:56:55;98980.63;;;12.35;84.13
75996;BME280;64681;49.738;9.004;2023-03-30T06:59:21;98980.91;;;12.49;83.62
75996;BME280;64681;49.738;9.004;2023-03-30T07:01:46;98970.34;;;12.37;84.25
75996;BME280;64681;49.738;9.004;2023-03-30T07:04:12;98969.56;;;12.01;85.96
75996;BME280;64681;49.738;9.004;2023-03-30T07:06:38;98964.47;;;12.31;84.26
75996;BME280;64681;49.738;9.004;2023-03-30T07:09:04;98954.41;;;12.25;85.30
75996;BME280;64681;49.738;9.004;2023-03-30T07:11:32;98953.44;;;12.33;84.77
75996;BME280;64681;49.738;9.004;2023-03-30T07:13:58;98961.25;;;12.42;84.62
75996;BME280;64681;49.738;9.004;2023-03-30T07:16:25;98966.09;;;12.36;84.91
75996;BME280;64681;49.738;9.004;2023-03-30T07:18:51;98976.84;;;12.56;84.46
75996;BME280;64681;49.738;9.004;2023-03-30T07:21:18;98997.47;;;12.55;83.70
75996;BME280;64681;49.738;9.004;2023-03-30T07:23:44;98988.31;;;12.76;82.75
75996;BME280;64681;49.738;9.004;2023-03-30T07:26:10;98980.25;;;12.76;82.89
75996;BME280;64681;49.738;9.004;2023-03-30T07:28:36;98970.41;;;12.21;84.95
75996;BME280;64681;49.738;9.004;2023-03-30T07:31:04;98958.28;;;12.27;85.11
75996;BME280;64681;49.738;9.004;2023-03-30T07:33:30;98941.78;;;12.06;86.14
75996;BME280;64681;49.738;9.004;2023-03-30T07:35:56;98937.13;;;12.02;85.73
75996;BME280;64681;49.738;9.004;2023-03-30T07:38:22;98936.28;;;12.38;84.64
75996;BME280;64681;49.738;9.004;2023-03-30T07:40:47;98941.31;;;12.39;84.35
75996;BME280;64681;49.738;9.004;2023-03-30T07:43:13;98942.16;;;12.43;84.08
75996;BME280;64681;49.738;9.004;2023-03-30T07:45:40;98943.72;;;12.64;82.26
75996;BME280;64681;49.738;9.004;2023-03-30T07:48:05;98952.28;;;12.73;82.71
75996;BME280;64681;49.738;9.004;2023-03-30T07:50:31;98957.44;;;12.82;82.77
75996;BME280;64681;49.738;9.004;2023-03-30T07:52:56;98954.75;;;12.82;82.37
75996;BME280;64681;49.738;9.004;2023-03-30T07:55:22;98938.38;;;12.87;82.64
75996;BME280;64681;49.738;9.004;2023-03-30T07:57:47;98913.09;;;12.65;83.91
75996;BME280;64681;49.738;9.004;2023-03-30T08:00:14;98880.41;;;12.98;82.34
75996;BME280;64681;49.738;9.004;2023-03-30T08:02:40;98887.59;;;13.41;80.00
75996;BME280;64681;49.738;9.004;2023-03-30T08:05:06;98878.16;;;13.51;79.93
75996;BME280;64681;49.738;9.004;2023-03-30T08:07:32;98888.44;;;13.22;80.11
75996;BME280;64681;49.738;9.004;2023-03-30T08:10:00;98873.25;;;13.06;81.05
75996;BME280;64681;49.738;9.004;2023-03-30T08:12:25;98858.41;;;13.12;80.76
75996;BME280;64681;49.738;9.004;2023-03-30T08:14:51;98871.34;;;12.83;81.92
75996;BME280;64681;49.738;9.004;2023-03-30T08:17:17;98854.50;;;12.40;83.67
75996;BME280;64681;49.738;9.004;2023-03-30T08:19:43;98888.19;;;12.84;81.76
75996;BME280;64681;49.738;9.004;2023-03-30T08:22:09;98900.44;;;12.85;81.59
75996;BME280;64681;49.738;9.004;2023-03-30T08:24:34;98887.13;;;13.12;81.42
75996;BME280;64681;49.738;9.004;2023-03-30T08:27:00;98885.81;;;13.02;81.46
75996;BME280;64681;49.738;9.004;2023-03-30T08:29:26;98901.34;;;13.16;80.40
75996;BME280;64681;49.738;9.004;2023-03-30T08:31:51;98890.22;;;13.14;80.41
75996;BME280;64681;49.738;9.004;2023-03-30T08:34:17;98868.28;;;13.32;80.00
75996;BME280;64681;49.738;9.004;2023-03-30T08:36:43;98878.00;;;12.93;80.54
75996;BME280;64681;49.738;9.004;2023-03-30T08:39:09;98879.34;;;13.53;79.21
75996;BME280;64681;49.738;9.004;2023-03-30T08:44:38;98907.44;;;13.90;76.92
75996;BME280;64681;49.738;9.004;2023-03-30T08:47:15;98910.31;;;14.04;76.87
75996;BME280;64681;49.738;9.004;2023-03-30T08:50:06;98921.03;;;14.31;76.98
75996;BME280;64681;49.738;9.004;2023-03-30T08:52:34;98922.00;;;14.84;74.44
75996;BME280;64681;49.738;9.004;2023-03-30T08:55:01;98912.38;;;14.83;74.07
75996;BME280;64681;49.738;9.004;2023-03-30T09:05:55;98878.41;;;15.61;70.93
75996;BME280;64681;49.738;9.004;2023-03-30T09:08:26;98907.50;;;16.00;70.30
75996;BME280;64681;49.738;9.004;2023-03-30T09:10:59;98909.78;;;15.39;72.19
75996;BME280;64681;49.738;9.004;2023-03-30T09:13:33;98904.63;;;15.71;70.61
75996;BME280;64681;49.738;9.004;2023-03-30T09:16:37;98905.44;;;15.82;70.08
75996;BME280;64681;49.738;9.004;2023-03-30T09:19:12;98912.44;;;15.87;71.69
75996;BME280;64681;49.738;9.004;2023-03-30T09:21:39;98919.56;;;16.28;68.41
75996;BME280;64681;49.738;9.004;2023-03-30T09:24:12;98940.84;;;16.58;68.59
75996;BME280;64681;49.738;9.004;2023-03-30T09:29:32;98934.41;;;16.99;66.18
75996;BME280;64681;49.738;9.004;2023-03-30T09:32:31;98941.28;;;15.87;67.98
75996;BME280;64681;49.738;9.004;2023-03-30T09:35:13;98938.03;;;16.26;65.88
75996;BME280;64681;49.738;9.004;2023-03-30T09:37:39;98913.78;;;16.29;65.98
75996;BME280;64681;49.738;9.004;2023-03-30T09:40:36;98937.53;;;16.02;67.65
75996;BME280;64681;49.738;9.004;2023-03-30T09:43:42;98948.03;;;15.62;67.99
75996;BME280;64681;49.738;9.004;2023-03-30T09:46:12;98950.25;;;15.53;67.75
75996;BME280;64681;49.738;9.004;2023-03-30T09:48:45;98946.38;;;15.47;68.70
75996;BME280;64681;49.738;9.004;2023-03-30T09:51:26;98941.28;;;15.38;67.86
75996;BME280;64681;49.738;9.004;2023-03-30T09:54:04;98951.41;;;16.08;66.71
75996;BME280;64681;49.738;9.004;2023-03-30T09:59:27;98924.88;;;15.50;66.11
75996;BME280;64681;49.738;9.004;2023-03-30T10:10:46;98930.69;;;16.26;64.06
75996;BME280;64681;49.738;9.004;2023-03-30T10:12:48;98918.50;;;16.51;62.75
75996;BME280;64681;49.738;9.004;2023-03-30T10:15:17;98950.91;;;16.83;63.45
75996;BME280;64681;49.738;9.004;2023-03-30T10:17:45;98930.19;;;17.27;62.03
75996;BME280;64681;49.738;9.004;2023-03-30T10:20:15;98947.91;;;17.06;61.39
75996;BME280;64681;49.738;9.004;2023-03-30T10:23:00;98928.66;;;17.22;62.15
75996;BME280;64681;49.738;9.004;2023-03-30T10:25:29;98921.72;;;17.29;61.64
75996;BME280;64681;49.738;9.004;2023-03-30T10:28:01;98927.47;;;17.60;60.50
75996;BME280;64681;49.738;9.004;2023-03-30T10:30:28;98915.50;;;17.68;59.97
75996;BME280;64681;49.738;9.004;2023-03-30T10:32:59;98928.06;;;18.36;59.33
75996;BME280;64681;49.738;9.004;2023-03-30T10:35:33;98913.44;;;18.23;58.07
75996;BME280;64681;49.738;9.004;2023-03-30T10:38:01;98930.09;;;18.03;59.87
75996;BME280;64681;49.738;9.004;2023-03-30T10:40:55;98933.09;;;18.34;57.68
75996;BME280;64681;49.738;9.004;2023-03-30T10:43:29;98918.34;;;18.46;57.14
75996;BME280;64681;49.738;9.004;2023-03-30T10:45:58;98919.53;;;18.38;58.21
75996;BME280;64681;49.738;9.004;2023-03-30T10:52:13;98928.03;;;18.43;56.50
75996;BME280;64681;49.738;9.004;2023-03-30T10:54:49;98931.22;;;18.13;56.89
75996;BME280;64681;49.738;9.004;2023-03-30T10:57:20;98932.66;;;18.39;56.50
75996;BME280;64681;49.738;9.004;2023-03-30T11:00:40;98935.91;;;17.83;56.97
75996;BME280;64681;49.738;9.004;2023-03-30T11:03:11;98915.53;;;17.53;57.92
75996;BME280;64681;49.738;9.004;2023-03-30T11:05:45;98928.63;;;17.55;59.96
75996;BME280;64681;49.738;9.004;2023-03-30T11:08:22;98932.34;;;18.26;58.16
75996;BME280;64681;49.738;9.004;2023-03-30T11:10:54;98933.91;;;18.24;56.77
75996;BME280;64681;49.738;9.004;2023-03-30T11:13:33;98943.66;;;18.85;55.61
75996;BME280;64681;49.738;9.004;2023-03-30T11:21:48;98939.59;;;19.18;53.77
75996;BME280;64681;49.738;9.004;2023-03-30T11:24:21;98929.78;;;19.35;53.26
75996;BME280;64681;49.738;9.004;2023-03-30T11:27:25;98934.09;;;19.29;53.44
75996;BME280;64681;49.738;9.004;2023-03-30T11:30:11;98918.88;;;18.90;54.08
75996;BME280;64681;49.738;9.004;2023-03-30T11:32:51;98919.94;;;19.07;53.52
75996;BME280;64681;49.738;9.004;2023-03-30T11:40:21;98903.59;;;18.61;53.08
75996;BME280;64681;49.738;9.004;2023-03-30T11:42:48;98895.63;;;18.36;53.11
75996;BME280;64681;49.738;9.004;2023-03-30T11:51:14;98918.56;;;17.81;54.95
75996;BME280;64681;49.738;9.004;2023-03-30T11:54:06;98898.97;;;17.33;56.86
75996;BME280;64681;49.738;9.004;2023-03-30T12:02:14;98912.44;;;17.51;57.41
75996;BME280;64681;49.738;9.004;2023-03-30T12:04:55;98923.25;;;17.12;58.55
75996;BME280;64681;49.738;9.004;2023-03-30T12:10:25;98911.25;;;16.91;56.64
75996;BME280;64681;49.738;9.004;2023-03-30T12:12:57;98901.28;;;16.95;57.39
75996;BME280;64681;49.738;9.004;2023-03-30T12:18:08;98916.22;;;18.08;54.01
75996;BME280;64681;49.738;9.004;2023-03-30T12:28:23;98890.41;;;17.71;56.23
75996;BME280;64681;49.738;9.004;2023-03-30T12:30:59;98897.31;;;17.83;56.62
75996;BME280;64681;49.738;9.004;2023-03-30T12:33:35;98880.44;;;17.53;56.67
75996;BME280;64681;49.738;9.004;2023-03-30T12:36:48;98889.69;;;17.45;57.09
75996;BME280;64681;49.738;9.004;2023-03-30T12:39:26;98884.66;;;17.65;56.98
75996;BME280;64681;49.738;9.004;2023-03-30T12:42:15;98898.94;;;17.59;54.88
75996;BME280;64681;49.738;9.004;2023-03-30T12:47:49;98900.50;;;17.31;55.76
75996;BME280;64681;49.738;9.004;2023-03-30T12:53:09;98895.03;;;16.69;56.69
75996;BME280;64681;49.738;9.004;2023-03-30T12:55:48;98881.53;;;16.55;58.12
75996;BME280;64681;49.738;9.004;2023-03-30T13:03:45;98850.25;;;16.18;57.84
75996;BME280;64681;49.738;9.004;2023-03-30T13:06:37;98857.88;;;15.97;59.10
75996;BME280;64681;49.738;9.004;2023-03-30T13:19:27;98834.06;;;16.14;58.40
75996;BME280;64681;49.738;9.004;2023-03-30T13:21:57;98833.31;;;16.17;58.97
75996;BME280;64681;49.738;9.004;2023-03-30T13:29:50;98814.16;;;16.62;57.26
75996;BME280;64681;49.738;9.004;2023-03-30T13:35:31;98835.75;;;17.23;54.47
75996;BME280;64681;49.738;9.004;2023-03-30T13:51:31;98827.00;;;18.15;52.41
75996;BME280;64681;49.738;9.004;2023-03-30T13:54:16;98835.34;;;18.39;51.60
75996;BME280;64681;49.738;9.004;2023-03-30T13:56:51;98845.09;;;18.82;50.62
75996;BME280;64681;49.738;9.004;2023-03-30T13:59:26;98854.22;;;18.50;50.39
75996;BME280;64681;49.738;9.004;2023-03-30T14:01:56;98847.03;;;18.22;52.07
75996;BME280;64681;49.738;9.004;2023-03-30T14:04:28;98853.31;;;19.20;50.02
75996;BME280;64681;49.738;9.004;2023-03-30T14:06:54;98847.28;;;19.85;47.53
75996;BME280;64681;49.738;9.004;2023-03-30T14:09:24;98845.31;;;19.86;46.31
75996;BME280;64681;49.738;9.004;2023-03-30T14:11:54;98850.75;;;19.06;47.59
75996;BME280;64681;49.738;9.004;2023-03-30T14:16:52;98839.47;;;18.58;47.13
75996;BME280;64681;49.738;9.004;2023-03-30T14:19:35;98849.69;;;18.32;48.55
75996;BME280;64681;49.738;9.004;2023-03-30T14:22:18;98833.91;;;18.83;47.79
75996;BME280;64681;49.738;9.004;2023-03-30T14:25:03;98855.09;;;18.96;47.14
75996;BME280;64681;49.738;9.004;2023-03-30T14:27:36;98853.59;;;18.84;45.90
75996;BME280;64681;49.738;9.004;2023-03-30T14:30:17;98851.16;;;19.04;45.29
75996;BME280;64681;49.738;9.004;2023-03-30T14:32:43;98848.19;;;18.84;45.38
75996;BME280;64681;49.738;9.004;2023-03-30T14:35:14;98851.72;;;18.77;46.25
75996;BME280;64681;49.738;9.004;2023-03-30T14:37:41;98845.56;;;18.73;46.54
75996;BME280;64681;49.738;9.004;2023-03-30T14:40:14;98853.22;;;18.82;45.94
75996;BME280;64681;49.738;9.004;2023-03-30T14:42:41;98856.34;;;18.77;45.67
75996;BME280;64681;49.738;9.004;2023-03-30T14:45:07;98861.13;;;18.55;46.76
75996;BME280;64681;49.738;9.004;2023-03-30T14:47:35;98862.81;;;18.34;46.15
75996;BME280;64681;49.738;9.004;2023-03-30T14:50:06;98840.00;;;18.39;45.88
75996;BME280;64681;49.738;9.004;2023-03-30T14:52:41;98861.25;;;18.33;46.82
75996;BME280;64681;49.738;9.004;2023-03-30T14:55:11;98868.16;;;18.41;46.17
75996;BME280;64681;49.738;9.004;2023-03-30T14:57:40;98858.00;;;17.71;47.37
75996;BME280;64681;49.738;9.004;2023-03-30T15:00:13;98879.28;;;17.51;48.58
75996;BME280;64681;49.738;9.004;2023-03-30T15:03:05;98895.41;;;17.80;48.23
75996;BME280;64681;49.738;9.004;2023-03-30T15:05:38;98922.84;;;17.35;48.42
75996;BME280;64681;49.738;9.004;2023-03-30T15:08:20;98920.91;;;17.17;48.96
75996;BME280;64681;49.738;9.004;2023-03-30T15:10:54;98933.66;;;17.06;49.40
75996;BME280;64681;49.738;9.004;2023-03-30T15:13:51;98944.16;;;16.23;53.90
75996;BME280;64681;49.738;9.004;2023-03-30T15:16:21;98938.22;;;14.95;58.48
75996;BME280;64681;49.738;9.004;2023-03-30T15:18:52;98928.78;;;15.12;59.02
75996;BME280;64681;49.738;9.004;2023-03-30T15:21:21;98939.19;;;15.13;57.38
75996;BME280;64681;49.738;9.004;2023-03-30T15:23:49;98935.94;;;14.63;57.94
75996;BME280;64681;49.738;9.004;2023-03-30T15:26:17;98945.31;;;15.14;57.94
75996;BME280;64681;49.738;9.004;2023-03-30T15:28:48;98933.44;;;15.15;57.71
75996;BME280;64681;49.738;9.004;2023-03-30T15:31:15;98931.66;;;15.37;56.85
75996;BME280;64681;49.738;9.004;2023-03-30T15:33:47;98935.69;;;15.58;56.73
75996;BME280;64681;49.738;9.004;2023-03-30T15:38:55;98929.91;;;15.56;57.05
75996;BME280;64681;49.738;9.004;2023-03-30T15:41:45;98933.31;;;16.08;55.60
75996;BME280;64681;49.738;9.004;2023-03-30T15:44:19;98934.47;;;16.07;55.17
75996;BME280;64681;49.738;9.004;2023-03-30T15:46:47;98926.13;;;16.38;55.35
75996;BME280;64681;49.738;9.004;2023-03-30T15:49:17;98932.78;;;16.69;54.04
75996;BME280;64681;49.738;9.004;2023-03-30T15:51:47;98929.66;;;16.64;54.08
75996;BME280;64681;49.738;9.004;2023-03-30T15:56:59;98916.63;;;16.91;53.60
75996;BME280;64681;49.738;9.004;2023-03-30T15:59:30;98920.09;;;16.77;54.56
75996;BME280;64681;49.738;9.004;2023-03-30T16:02:11;98915.13;;;16.93;54.25
75996;BME280;64681;49.738;9.004;2023-03-30T16:04:37;98897.75;;;16.84;53.58